Time;durP1;ratioP1;P1;durP2;ratioP2;P2;SDS_P1;SDS_P2;PMS_P1;PMS_P2;Temp;Humidity;BMP_temperature;BMP_pressure;BME280_temperature;BME280_humidity;BME280_pressure;Samples;Min_cycle;Max_cycle;Signal;HPM_P1;HPM_P2
2021/08/23 00:00:10;;;;;;;8.77;3.00;;;;;;;12.02;95.90;102246.72;4835175;29;20039;-83
2021/08/23 00:02:37;;;;;;;6.07;3.10;;;;;;;11.98;95.99;102244.38;4852368;29;20438;-84
2021/08/23 00:05:03;;;;;;;4.65;3.10;;;;;;;11.81;96.23;102231.06;4852761;29;20037;-85
2021/08/23 00:07:29;;;;;;;5.70;2.97;;;;;;;11.86;96.59;102245.78;4851280;29;20042;-84
2021/08/23 00:09:55;;;;;;;5.20;3.00;;;;;;;11.81;96.46;102253.50;4836085;29;20031;-84
2021/08/23 00:12:21;;;;;;;3.80;2.85;;;;;;;11.70;96.48;102237.69;4835134;29;20517;-84
2021/08/23 00:14:47;;;;;;;4.50;2.75;;;;;;;11.66;96.84;102249.81;4803698;29;20037;-84
2021/08/23 00:17:12;;;;;;;7.38;3.13;;;;;;;11.63;96.43;102250.16;4850137;29;20037;-83
2021/08/23 00:19:38;;;;;;;3.90;3.10;;;;;;;11.60;96.80;102254.03;4852720;29;20034;-85
2021/08/23 00:22:20;;;;;;;4.40;2.90;;;;;;;11.55;96.50;102256.38;4851516;29;20049;-84
2021/08/23 00:24:50;;;;;;;5.43;3.05;;;;;;;11.49;96.55;102255.22;4843720;29;20058;-83
2021/08/23 00:27:16;;;;;;;4.07;2.80;;;;;;;11.48;96.62;102258.09;4835226;29;20022;-84
2021/08/23 00:29:42;;;;;;;6.63;2.92;;;;;;;11.42;97.08;102254.22;4835188;29;20102;-84
2021/08/23 00:32:09;;;;;;;7.72;3.45;;;;;;;11.33;97.03;102249.00;4838644;29;20027;-84
2021/08/23 00:34:35;;;;;;;4.47;2.97;;;;;;;11.33;96.95;102263.31;4840055;29;20042;-85
2021/08/23 00:37:01;;;;;;;6.25;3.50;;;;;;;11.17;96.59;102234.50;4849557;29;20040;-85
2021/08/23 00:39:26;;;;;;;5.78;2.78;;;;;;;11.23;97.27;102252.72;4851735;29;20022;-84
2021/08/23 00:41:52;;;;;;;3.72;2.63;;;;;;;11.24;97.09;102269.72;4835317;29;20137;-85
2021/08/23 00:44:17;;;;;;;3.15;2.75;;;;;;;11.16;97.42;102265.16;4845685;29;20053;-84
2021/08/23 00:46:42;;;;;;;4.85;3.10;;;;;;;11.13;97.15;102260.13;4850527;29;20106;-84
2021/08/23 00:49:08;;;;;;;7.38;2.90;;;;;;;11.11;97.30;102263.97;4846545;29;20041;-83
2021/08/23 00:51:33;;;;;;;6.63;3.00;;;;;;;11.03;97.33;102264.81;4816698;29;20034;-84
2021/08/23 00:53:59;;;;;;;4.68;2.80;;;;;;;11.02;97.09;102269.34;4831401;29;20038;-84
2021/08/23 00:56:24;;;;;;;5.28;3.20;;;;;;;10.96;97.29;102270.03;4845056;29;20357;-83
2021/08/23 00:58:50;;;;;;;4.20;2.92;;;;;;;10.98;97.14;102280.63;4834562;29;20044;-84
2021/08/23 01:01:25;;;;;;;5.28;3.30;;;;;;;10.96;97.86;102285.31;4843906;29;20037;-84
2021/08/23 01:04:05;;;;;;;9.27;3.42;;;;;;;10.98;97.61;102275.22;4852197;29;20441;-83
2021/08/23 01:06:32;;;;;;;6.10;3.63;;;;;;;11.02;98.10;102269.34;4842120;29;20060;-83
2021/08/23 01:09:02;;;;;;;6.70;3.95;;;;;;;11.01;97.81;102272.22;4816030;29;20121;-84
2021/08/23 01:11:30;;;;;;;4.22;3.25;;;;;;;11.09;98.08;102279.44;4831700;29;20076;-83
2021/08/23 01:13:55;;;;;;;4.13;3.45;;;;;;;11.14;98.36;102277.13;4830246;29;20034;-83
2021/08/23 01:16:21;;;;;;;5.00;3.55;;;;;;;11.09;97.92;102279.44;4798847;29;20540;-84
2021/08/23 01:18:46;;;;;;;4.03;3.45;;;;;;;11.10;98.49;102279.31;4817945;29;20043;-83
2021/08/23 01:21:17;;;;;;;4.53;3.30;;;;;;;10.99;98.61;102260.75;4849503;29;20506;-83
2021/08/23 01:23:46;;;;;;;4.93;3.10;;;;;;;10.96;98.48;102274.53;4848290;29;20054;-84
2021/08/23 01:26:15;;;;;;;3.83;2.80;;;;;;;10.94;98.35;102276.59;4836312;29;20041;-84
2021/08/23 01:28:48;;;;;;;5.25;3.40;;;;;;;10.81;98.42;102266.28;4835438;29;20042;-85
2021/08/23 01:31:19;;;;;;;4.43;3.50;;;;;;;10.89;98.70;102287.81;4835808;29;20031;-84
2021/08/23 01:33:46;;;;;;;4.28;3.20;;;;;;;10.82;98.48;102287.66;4842935;29;20066;-85
2021/08/23 01:36:13;;;;;;;4.72;3.30;;;;;;;10.81;98.74;102288.66;4855834;29;20042;-84
2021/08/23 01:38:39;;;;;;;3.30;2.67;;;;;;;10.68;98.86;102282.91;4843841;29;20509;-83
2021/08/23 01:41:07;;;;;;;5.15;3.40;;;;;;;10.63;98.72;102285.25;4816078;29;20046;-84
2021/08/23 01:43:34;;;;;;;4.55;3.10;;;;;;;10.68;98.55;102293.66;4832158;29;20034;-83
2021/08/23 01:45:59;;;;;;;5.03;3.17;;;;;;;10.64;99.30;102278.84;4831633;29;20030;-83
2021/08/23 01:48:25;;;;;;;6.28;3.38;;;;;;;10.59;98.99;102281.19;4831867;29;20045;-83
2021/08/23 01:50:51;;;;;;;5.45;3.20;;;;;;;10.65;99.14;102288.59;4828720;29;20030;-83
2021/08/23 01:53:17;;;;;;;5.00;3.10;;;;;;;10.68;98.76;102303.59;4830541;29;20061;-83
2021/08/23 01:55:44;;;;;;;6.22;3.40;;;;;;;10.63;98.93;102293.34;4839659;29;20030;-83
2021/08/23 01:58:10;;;;;;;6.35;3.47;;;;;;;10.72;99.37;102308.47;4854481;29;20129;-83
2021/08/23 02:00:35;;;;;;;6.10;3.33;;;;;;;10.60;99.06;102288.28;4849411;29;20124;-84
2021/08/23 02:03:00;;;;;;;6.28;3.40;;;;;;;10.70;99.19;102299.75;4839032;29;20433;-83
2021/08/23 02:05:28;;;;;;;6.63;3.20;;;;;;;10.50;99.19;102268.72;4837992;29;20051;-84
2021/08/23 02:07:53;;;;;;;5.13;3.90;;;;;;;10.59;99.76;102291.94;4836918;29;20064;-83
2021/08/23 02:10:19;;;;;;;6.82;3.38;;;;;;;10.28;99.30;102256.69;4837792;29;20030;-84
2021/08/23 02:12:44;;;;;;;3.85;3.08;;;;;;;10.50;99.42;102296.47;4838310;29;20057;-83
2021/08/23 02:15:10;;;;;;;6.35;3.80;;;;;;;10.56;99.41;102309.28;4833607;29;20043;-84
2021/08/23 02:17:35;;;;;;;4.80;3.13;;;;;;;10.59;99.50;102310.78;4834766;29;20030;-84
2021/08/23 02:20:00;;;;;;;5.05;3.47;;;;;;;10.62;100.00;102304.25;4834510;29;20134;-84
2021/08/23 02:22:26;;;;;;;6.63;3.60;;;;;;;10.63;99.41;102301.41;4834357;29;20043;-83
2021/08/23 02:24:51;;;;;;;5.22;3.78;;;;;;;10.66;99.74;102310.97;4846288;29;20084;-83
2021/08/23 02:27:18;;;;;;;6.05;3.72;;;;;;;10.39;99.77;102263.63;4871571;29;20090;-84
2021/08/23 02:29:43;;;;;;;6.63;3.55;;;;;;;10.72;99.67;102316.56;4856070;29;20460;-84
2021/08/23 02:32:08;;;;;;;4.22;3.22;;;;;;;10.71;100.00;102314.03;4856611;29;20038;-83
2021/08/23 02:34:34;;;;;;;6.65;3.50;;;;;;;10.70;100.00;102312.38;4856058;29;20120;-83
2021/08/23 02:36:59;;;;;;;5.35;3.42;;;;;;;10.63;100.00;102311.31;4855997;29;20026;-83
2021/08/23 02:39:25;;;;;;;5.60;3.50;;;;;;;10.63;100.00;102306.78;4836887;29;20112;-84
2021/08/23 02:41:53;;;;;;;6.85;3.72;;;;;;;10.62;99.81;102313.16;4855565;29;20041;-84
2021/08/23 02:44:20;;;;;;;4.72;3.17;;;;;;;10.55;100.00;102304.91;4832281;29;20477;-83
2021/08/23 02:46:46;;;;;;;6.03;3.35;;;;;;;10.60;100.00;102315.19;4837493;29;20373;-84
2021/08/23 02:49:11;;;;;;;7.57;3.75;;;;;;;10.58;100.00;102322.56;4856563;29;20022;-84
2021/08/23 02:51:38;;;;;;;7.13;3.58;;;;;;;10.40;100.00;102293.06;4840645;29;20129;-84
2021/08/23 02:54:04;;;;;;;8.60;3.58;;;;;;;10.57;100.00;102323.59;4857737;29;20066;-83
2021/08/23 02:56:35;;;;;;;7.53;3.40;;;;;;;10.44;100.00;102307.03;4852628;29;20041;-83
2021/08/23 02:59:00;;;;;;;8.07;3.65;;;;;;;10.41;100.00;102315.44;4841534;29;20436;-84
2021/08/23 03:01:26;;;;;;;4.78;3.20;;;;;;;10.47;100.00;102321.03;4851831;29;20030;-84
2021/08/23 03:03:51;;;;;;;5.70;3.92;;;;;;;10.47;100.00;102322.88;4840260;29;20035;-82
2021/08/23 03:06:16;;;;;;;8.18;3.85;;;;;;;10.43;100.00;102324.19;4839561;29;20083;-83
2021/08/23 03:08:43;;;;;;;6.97;3.58;;;;;;;10.33;100.00;102316.22;4838694;29;20038;-83
2021/08/23 03:11:11;;;;;;;5.15;3.95;;;;;;;10.31;100.00;102329.84;4837072;29;20050;-83
2021/08/23 03:13:37;;;;;;;6.28;3.80;;;;;;;10.28;100.00;102332.84;4854624;29;20062;-83
2021/08/23 03:16:03;;;;;;;7.32;4.00;;;;;;;10.23;100.00;102328.91;4853783;29;20068;-84
2021/08/23 03:18:29;;;;;;;8.07;3.80;;;;;;;10.30;100.00;102341.63;4846686;29;20094;-84
2021/08/23 03:20:54;;;;;;;7.13;3.60;;;;;;;10.24;100.00;102334.16;4803819;29;20062;-82
2021/08/23 03:23:19;;;;;;;6.13;3.72;;;;;;;10.27;100.00;102338.41;4816903;29;20075;-83
2021/08/23 03:25:46;;;;;;;7.53;3.78;;;;;;;10.23;100.00;102327.09;4851034;29;20030;-82
2021/08/23 03:28:12;;;;;;;5.88;3.47;;;;;;;10.26;100.00;102332.16;4851024;29;20030;-83
2021/08/23 03:30:37;;;;;;;8.88;4.25;;;;;;;10.31;100.00;102337.91;4835865;29;20061;-84
2021/08/23 03:33:03;;;;;;;5.13;3.90;;;;;;;10.31;100.00;102335.22;4852180;29;20033;-83
2021/08/23 03:35:28;;;;;;;7.05;3.80;;;;;;;10.42;100.00;102347.56;4852961;29;20053;-82
2021/08/23 03:37:54;;;;;;;7.40;3.90;;;;;;;10.27;100.00;102314.19;4849515;29;20064;-83
2021/08/23 03:40:19;;;;;;;5.00;3.83;;;;;;;10.43;100.00;102349.28;4852091;29;20038;-83
2021/08/23 03:42:45;;;;;;;6.00;3.47;;;;;;;10.37;100.00;102349.06;4848866;29;20052;-83
2021/08/23 03:45:10;;;;;;;4.25;3.33;;;;;;;10.15;100.00;102318.97;4853697;29;20030;-84
2021/08/23 03:47:36;;;;;;;7.03;3.90;;;;;;;10.21;100.00;102345.22;4849308;29;20338;-83
2021/08/23 03:50:01;;;;;;;6.97;4.10;;;;;;;10.32;100.00;102346.84;4823540;29;20035;-84
2021/08/23 03:52:26;;;;;;;9.13;4.18;;;;;;;10.34;100.00;102340.28;4817981;29;20057;-83
2021/08/23 03:54:52;;;;;;;6.72;4.15;;;;;;;10.43;100.00;102348.41;4818712;29;20030;-83
2021/08/23 03:57:17;;;;;;;10.32;3.80;;;;;;;10.45;100.00;102352.63;4835724;29;20392;-83
2021/08/23 03:59:43;;;;;;;7.75;4.07;;;;;;;10.49;100.00;102350.44;4832681;29;20038;-83
2021/08/23 04:02:08;;;;;;;6.43;3.92;;;;;;;10.43;100.00;102337.63;4828245;29;20376;-84
2021/08/23 04:04:33;;;;;;;8.05;4.00;;;;;;;10.49;100.00;102355.84;4817652;29;20115;-83
2021/08/23 04:07:00;;;;;;;7.72;4.00;;;;;;;10.43;100.00;102343.00;4813815;29;20050;-83
2021/08/23 04:09:25;;;;;;;7.50;3.90;;;;;;;10.51;100.00;102346.59;4835925;29;20034;-83
2021/08/23 04:11:51;;;;;;;8.02;3.88;;;;;;;10.57;100.00;102350.50;4839344;29;20068;-85
2021/08/23 04:14:16;;;;;;;7.25;3.85;;;;;;;10.59;100.00;102359.25;4843515;29;20030;-84
2021/08/23 04:16:41;;;;;;;7.47;4.10;;;;;;;10.76;99.22;102344.88;4860450;29;20026;-85
2021/08/23 04:19:07;;;;;;;5.55;3.50;;;;;;;11.14;98.05;102364.16;4833990;29;20184;-84
2021/08/23 04:21:32;;;;;;;6.03;3.50;;;;;;;11.38;96.88;102370.59;4819822;29;20035;-84
2021/08/23 04:23:58;;;;;;;8.70;3.40;;;;;;;11.48;96.06;102355.13;4847248;29;20061;-84
2021/08/23 04:26:31;;;;;;;6.20;3.47;;;;;;;11.82;95.34;102373.00;4835628;29;20093;-84
2021/08/23 04:28:56;;;;;;;7.50;3.47;;;;;;;12.04;93.91;102372.34;4840385;29;20049;-84
2021/08/23 04:31:22;;;;;;;5.80;3.33;;;;;;;12.26;93.23;102378.06;4835065;29;20038;-83
2021/08/23 04:33:47;;;;;;;6.68;3.47;;;;;;;12.41;92.19;102373.63;4831653;29;20473;-83
2021/08/23 04:36:14;;;;;;;6.32;3.75;;;;;;;12.67;91.35;102379.59;4835062;29;20041;-85
2021/08/23 04:38:39;;;;;;;4.63;3.40;;;;;;;12.83;90.19;102365.19;4847254;29;20034;-83
2021/08/23 04:41:07;;;;;;;5.05;3.15;;;;;;;12.91;89.56;102348.09;4851298;29;20101;-85
2021/08/23 04:43:32;;;;;;;7.78;3.30;;;;;;;13.30;88.58;102385.91;4851037;29;20041;-84
2021/08/23 04:45:58;;;;;;;5.22;3.08;;;;;;;13.54;87.34;102384.94;4838299;29;20111;-87
2021/08/23 04:48:24;;;;;;;5.35;3.20;;;;;;;13.78;86.51;102377.66;4836272;29;20446;-83
2021/08/23 04:50:50;;;;;;;5.68;2.95;;;;;;;13.96;85.26;102380.03;4844618;29;20045;-83
2021/08/23 04:53:15;;;;;;;8.50;3.22;;;;;;;14.23;84.58;102387.53;4833093;29;20057;-82
2021/08/23 04:55:40;;;;;;;9.63;3.30;;;;;;;14.36;83.46;102380.66;4831681;29;20042;-82
2021/08/23 04:58:06;;;;;;;11.25;3.03;;;;;;;14.69;82.71;102391.97;4806876;29;20137;-81
2021/08/23 05:00:31;;;;;;;5.35;2.83;;;;;;;14.86;82.10;102382.63;4812170;29;20034;-82
2021/08/23 05:02:57;;;;;;;5.68;2.90;;;;;;;15.11;81.21;102395.88;4832948;29;20488;-81
2021/08/23 05:05:28;;;;;;;5.95;3.00;;;;;;;15.34;80.51;102385.69;4827988;29;20061;-80
2021/08/23 05:07:54;;;;;;;5.38;2.85;;;;;;;15.41;79.41;102396.63;4846738;29;20030;-84
2021/08/23 05:10:19;;;;;;;5.22;2.85;;;;;;;15.39;79.03;102360.69;4839126;29;20045;-81
2021/08/23 05:12:44;;;;;;;5.63;2.80;;;;;;;15.73;78.69;102400.75;4832075;29;20030;-82
2021/08/23 05:15:10;;;;;;;8.13;2.60;;;;;;;15.80;77.94;102379.09;4830788;29;20033;-82
2021/08/23 05:17:35;;;;;;;5.03;2.70;;;;;;;16.04;77.48;102402.25;4828364;29;20053;-81
2021/08/23 05:20:01;;;;;;;5.10;2.60;;;;;;;16.05;76.73;102377.63;4814850;29;20091;-82
2021/08/23 05:22:27;;;;;;;4.70;2.60;;;;;;;16.40;75.93;102399.41;4833074;29;20365;-81
2021/08/23 05:24:53;;;;;;;9.18;2.88;;;;;;;16.20;75.67;102377.53;4834123;29;20034;-81
2021/08/23 05:27:18;;;;;;;3.92;2.80;;;;;;;15.77;76.94;102393.06;4833573;29;20030;-82
2021/08/23 05:29:43;;;;;;;4.93;2.60;;;;;;;14.94;80.30;102406.09;4833860;29;20030;-84
2021/08/23 05:32:09;;;;;;;6.85;2.92;;;;;;;14.28;83.28;102395.13;4827710;29;20038;-82
2021/08/23 05:34:35;;;;;;;9.45;2.83;;;;;;;13.93;84.41;102397.47;4822464;29;20118;-81
2021/08/23 05:37:00;;;;;;;6.75;2.67;;;;;;;13.79;85.45;102406.38;4824756;29;20062;-80
2021/08/23 05:39:26;;;;;;;5.57;2.75;;;;;;;13.65;86.01;102399.06;4831912;29;20038;-80
2021/08/23 05:41:51;;;;;;;5.72;2.90;;;;;;;13.68;86.36;102412.22;4838417;29;20482;-80
2021/08/23 05:44:16;;;;;;;5.43;2.60;;;;;;;13.65;86.91;102409.88;4825121;29;20035;-80
2021/08/23 05:46:42;;;;;;;6.22;2.90;;;;;;;13.72;86.98;102416.25;4795525;29;20033;-80
2021/08/23 05:49:07;;;;;;;2.75;2.30;;;;;;;13.81;86.55;102409.75;4821364;29;20485;-80
2021/08/23 05:51:33;;;;;;;4.53;2.50;;;;;;;13.98;86.80;102396.94;4822030;29;20041;-81
2021/08/23 05:53:58;;;;;;;5.65;2.80;;;;;;;14.20;86.42;102412.25;4828865;29;20050;-80
2021/08/23 05:56:24;;;;;;;4.32;2.17;;;;;;;14.31;86.45;102416.41;4825885;29;20026;-83
2021/08/23 05:58:49;;;;;;;3.45;2.15;;;;;;;14.46;nan;102416.41;4831890;29;20030;-82
2021/08/23 06:01:15;;;;;;;4.50;2.35;;;;;;;14.62;85.42;102418.97;4838684;29;20034;-83
2021/08/23 06:03:40;;;;;;;3.95;2.00;;;;;;;14.72;84.55;102413.28;4831491;29;20046;-84
2021/08/23 06:06:06;;;;;;;3.08;1.95;;;;;;;14.83;84.23;102420.94;4843983;29;20053;-87
2021/08/23 06:08:35;;;;;;;6.43;2.28;;;;;;;14.99;84.12;102431.56;4826125;29;20039;-87
2021/08/23 06:11:02;;;;;;;4.97;2.10;;;;;;;15.09;82.75;102417.72;4842114;29;20035;-89
2021/08/23 06:13:27;;;;;;;3.15;1.70;;;;;;;15.13;82.62;102415.47;4843357;29;20033;-86
2021/08/23 06:15:55;;;;;;;4.72;1.92;;;;;;;15.25;81.67;102430.25;4845548;29;20121;-87
2021/08/23 06:18:22;;;;;;;9.90;2.15;;;;;;;15.31;81.43;102425.94;4831984;29;20063;-86
2021/08/23 06:20:48;;;;;;;4.22;1.98;;;;;;;15.31;80.61;102418.63;4824471;29;20035;-87
2021/08/23 06:23:14;;;;;;;3.90;2.22;;;;;;;15.55;80.69;102438.28;4836600;29;20063;-86
2021/08/23 06:25:40;;;;;;;5.95;1.88;;;;;;;15.74;80.36;102435.81;4848762;29;20041;-87
2021/08/23 06:28:06;;;;;;;4.53;1.80;;;;;;;15.93;79.44;102445.19;4829112;29;20093;-85
2021/08/23 06:33:11;;;;;;;4.07;1.65;;;;;;;15.69;77.91;102370.44;4933112;24;20274;-88
2021/08/23 06:35:37;;;;;;;3.88;1.92;;;;;;;15.52;78.35;102318.25;4854743;29;20037;-90
2021/08/23 06:38:03;;;;;;;5.10;2.10;;;;;;;16.26;79.26;102452.78;4832179;29;20030;-87
2021/08/23 06:40:28;;;;;;;3.55;2.20;;;;;;;15.83;79.67;102384.97;4995655;23;20043;-87
2021/08/23 06:42:54;;;;;;;5.43;1.98;;;;;;;16.12;79.28;102423.81;4849908;29;20035;-87
2021/08/23 06:45:20;;;;;;;4.45;2.10;;;;;;;15.97;79.18;102380.50;4850189;29;20029;-85
2021/08/23 06:47:46;;;;;;;4.82;1.92;;;;;;;16.41;78.66;102442.66;4854870;29;20411;-88
2021/08/23 06:50:13;;;;;;;3.80;2.10;;;;;;;16.11;78.42;102384.13;4856915;29;20082;-87
2021/08/23 06:52:40;;;;;;;5.45;2.30;;;;;;;15.92;78.57;102353.06;4864469;29;20019;-85
2021/08/23 06:55:07;;;;;;;3.50;1.95;;;;;;;16.62;78.28;102465.38;4849633;29;20018;-87
2021/08/23 06:57:33;;;;;;;5.20;2.15;;;;;;;16.14;78.24;102368.28;4864395;29;20007;-86
2021/08/23 06:59:58;;;;;;;4.18;2.10;;;;;;;16.26;77.77;102371.31;4849193;29;20042;-86
2021/08/23 07:02:24;;;;;;;3.22;2.13;;;;;;;16.19;77.51;102370.41;4849662;29;20065;-87
2021/08/23 07:04:50;;;;;;;3.72;1.80;;;;;;;16.49;77.24;102410.94;4852384;29;20027;-85
2021/08/23 07:07:18;;;;;;;6.15;1.85;;;;;;;16.14;77.22;102343.00;4851701;29;20014;-87
2021/08/23 07:09:45;;;;;;;4.15;1.90;;;;;;;16.58;76.71;102393.44;4853670;29;20045;-84
2021/08/23 07:12:10;;;;;;;4.30;2.30;;;;;;;16.70;76.28;102393.72;4860636;29;20010;-90
2021/08/23 07:17:12;;;;;;;4.60;1.90;;;;;;;16.54;75.43;102340.53;5192489;23;20050;-85
2021/08/23 07:19:37;;;;;;;5.03;1.92;;;;;;;16.95;74.58;102375.88;4852684;29;20077;-87
2021/08/23 07:22:04;;;;;;;3.83;2.00;;;;;;;17.19;73.71;102392.72;5283017;23;20046;-86
2021/08/23 07:24:30;;;;;;;6.38;2.05;;;;;;;17.41;73.44;102396.09;4852445;29;20106;-86
2021/08/23 07:26:56;;;;;;;4.25;2.10;;;;;;;17.47;72.44;102398.84;4845090;29;20029;-86
2021/08/23 07:29:22;;;;;;;4.20;2.28;;;;;;;17.24;72.07;102352.13;4842367;29;20045;-86
2021/08/23 07:31:48;;;;;;;5.70;2.80;;;;;;;18.06;72.74;102463.47;4856077;29;20017;-86
2021/08/23 07:42:00;;;;;;;2.97;2.22;;;;;;;17.83;71.08;102378.63;4995380;23;20049;-87
2021/08/23 07:49:36;;;;;;;5.20;2.00;;;;;;;17.78;71.28;102370.22;4979964;24;20042;-86
2021/08/23 07:52:06;;;;;;;3.38;1.85;;;;;;;18.18;69.91;102425.56;4847612;29;20065;-87
2021/08/23 07:54:32;;;;;;;3.53;2.15;;;;;;;18.55;70.32;102478.56;4850312;29;20010;-85
2021/08/23 07:56:58;;;;;;;5.03;1.88;;;;;;;18.02;69.71;102368.78;4846127;29;20034;-84
2021/08/23 07:59:24;;;;;;;3.72;2.20;;;;;;;18.24;69.77;102404.78;4846265;29;20030;-86
2021/08/23 08:01:50;;;;;;;2.40;1.75;;;;;;;18.30;69.50;102391.16;4846501;29;20038;-86
2021/08/23 08:04:16;;;;;;;3.95;2.10;;;;;;;18.51;69.15;102417.34;4844753;29;20022;-86
2021/08/23 08:06:44;;;;;;;3.33;2.03;;;;;;;18.31;70.16;102379.22;4851390;29;20022;-86
2021/08/23 08:09:11;;;;;;;6.25;2.53;;;;;;;18.35;71.23;102400.59;5090117;24;20045;-84
2021/08/23 08:11:36;;;;;;;4.50;2.40;;;;;;;17.96;70.94;102365.00;4858294;29;20068;-86
2021/08/23 08:14:02;;;;;;;6.93;1.95;;;;;;;18.06;71.45;102413.59;4847132;29;20046;-85
2021/08/23 08:16:28;;;;;;;3.55;2.15;;;;;;;18.06;71.88;102427.22;4851019;29;20034;-86
2021/08/23 08:18:55;;;;;;;3.58;2.10;;;;;;;17.89;72.06;102415.06;4849906;29;20035;-85
2021/08/23 08:21:22;;;;;;;4.25;2.22;;;;;;;17.76;71.73;102402.25;4851884;29;20055;-86
2021/08/23 08:23:52;;;;;;;7.80;2.38;;;;;;;17.78;71.56;102422.81;4843220;29;20015;-86
2021/08/23 08:26:19;;;;;;;9.30;2.30;;;;;;;17.80;72.41;102441.66;4842590;29;20558;-84
2021/08/23 08:28:45;;;;;;;3.88;2.25;;;;;;;17.66;71.71;102412.72;4842041;29;20026;-84
2021/08/23 08:31:11;;;;;;;3.30;2.10;;;;;;;18.15;71.78;102491.34;4847500;29;20086;-85
2021/08/23 08:33:37;;;;;;;6.40;2.22;;;;;;;17.97;70.83;102472.06;4844520;29;20034;-85
2021/08/23 08:36:02;;;;;;;5.38;2.40;;;;;;;17.59;71.23;102404.53;4847891;29;20018;-86
2021/08/23 08:38:28;;;;;;;4.45;2.30;;;;;;;18.11;72.69;102492.78;4846343;29;20026;-85
2021/08/23 08:40:58;;;;;;;3.63;2.10;;;;;;;17.38;72.23;102381.03;4851746;29;20034;-85
2021/08/23 08:43:25;;;;;;;5.05;2.65;;;;;;;17.50;72.98;102411.22;4847653;29;20044;-86
2021/08/23 08:45:50;;;;;;;5.43;2.30;;;;;;;17.59;73.19;102416.25;4848336;29;20081;-85
2021/08/23 08:48:19;;;;;;;6.60;2.70;;;;;;;17.43;73.65;102385.88;4849842;29;20031;-87
2021/08/23 08:50:45;;;;;;;5.93;2.80;;;;;;;17.56;73.60;102400.34;4843122;29;20026;-86
2021/08/23 08:53:12;;;;;;;6.13;2.63;;;;;;;17.71;73.90;102430.06;4849666;29;20014;-85
2021/08/23 08:55:38;;;;;;;5.95;2.70;;;;;;;17.53;73.70;102408.91;4854061;29;20058;-85
2021/08/23 08:58:05;;;;;;;6.32;2.92;;;;;;;17.52;74.02;102404.53;4848278;29;20045;-86
2021/08/23 09:00:33;;;;;;;4.97;2.50;;;;;;;17.79;73.30;102440.81;4848457;29;20031;-86
2021/08/23 09:03:00;;;;;;;3.63;2.53;;;;;;;17.51;73.03;102397.38;4850904;29;20026;-86
2021/08/23 09:05:36;;;;;;;5.32;2.45;;;;;;;17.87;73.47;102450.66;4848426;29;20050;-87
2021/08/23 09:08:03;;;;;;;3.80;2.42;;;;;;;17.63;73.67;102433.00;4846814;29;20019;-83
2021/08/23 09:13:26;;;;;;;4.68;2.30;;;;;;;17.62;75.14;102434.06;4838458;29;20078;-86
2021/08/23 09:15:57;;;;;;;3.85;2.53;;;;;;;17.48;75.69;102411.44;4832703;29;20043;-85
2021/08/23 09:18:24;;;;;;;4.38;2.50;;;;;;;17.56;76.52;102429.44;4837105;29;20003;-85
2021/08/23 09:21:06;;;;;;;4.15;2.50;;;;;;;17.31;75.65;102410.09;4845283;29;20057;-88
2021/08/23 09:23:42;;;;;;;3.63;2.38;;;;;;;17.57;76.84;102447.44;4840387;29;20030;-87
2021/08/23 09:26:13;;;;;;;3.38;2.42;;;;;;;17.28;76.66;102415.94;4845073;29;20034;-88
2021/08/23 09:28:40;;;;;;;5.03;2.60;;;;;;;17.52;77.41;102456.22;4829185;29;20034;-87
2021/08/23 09:31:10;;;;;;;3.85;2.28;;;;;;;17.35;76.49;102417.66;4842468;29;20022;-88
2021/08/23 14:27:41;;;;;;;3.47;1.80;;;;;;;18.08;77.21;102417.81;5582060;23;20050;-88
2021/08/23 14:58:27;;;;;;;3.33;1.75;;;;;;;18.32;76.10;102464.53;4862357;24;20072;-89
2021/08/23 17:53:46;;;;;;;3.17;1.48;;;;;;;18.67;67.50;102574.16;5882196;24;20727;31
2021/08/23 18:11:27;;;;;;;2.65;1.30;;;;;;;18.43;70.85;102582.97;5570431;23;20106;-86
2021/08/23 18:37:10;;;;;;;4.05;1.38;;;;;;;16.71;70.71;102425.28;5543659;23;20238;-85
2021/08/23 18:39:38;;;;;;;2.72;1.30;;;;;;;17.69;70.88;102590.09;4863332;29;20057;-85
2021/08/23 18:49:49;;;;;;;2.78;1.48;;;;;;;17.05;71.81;102538.66;5894419;23;20015;-81
2021/08/23 19:15:32;;;;;;;3.85;1.75;;;;;;;17.06;73.59;102635.56;5196018;24;20065;-84
2021/08/23 19:28:21;;;;;;;3.70;1.70;;;;;;;15.67;74.21;102436.78;5813253;23;20009;-84
2021/08/23 19:31:05;;;;;;;2.92;1.55;;;;;;;15.46;74.31;102426.72;4851641;29;20019;-85
2021/08/23 19:33:31;;;;;;;4.15;1.70;;;;;;;15.89;74.53;102490.06;4850045;29;20010;-85
2021/08/23 19:35:57;;;;;;;4.60;1.85;;;;;;;15.42;74.78;102431.69;4849997;29;20051;-85
2021/08/23 19:38:23;;;;;;;3.65;1.65;;;;;;;15.59;75.02;102453.16;4850252;29;20018;-85
2021/08/23 19:40:49;;;;;;;2.13;1.60;;;;;;;15.26;75.30;102423.78;4849946;29;20022;-83
2021/08/23 19:45:50;;;;;;;2.80;1.63;;;;;;;16.38;74.83;102616.09;5346229;24;20057;-84
2021/08/23 20:08:57;;;;;;;2.63;1.60;;;;;;;14.52;78.54;102488.84;5562358;23;20062;-85
2021/08/23 20:42:28;;;;;;;3.70;2.00;;;;;;;14.08;83.56;102631.16;4673801;23;20045;-85
2021/08/23 20:44:53;;;;;;;3.75;1.90;;;;;;;14.04;83.72;102640.66;4871938;29;20010;-85
2021/08/23 20:55:05;;;;;;;3.88;1.90;;;;;;;13.75;85.19;102643.16;5718767;24;20060;-85
2021/08/23 20:57:33;;;;;;;3.05;2.10;;;;;;;13.25;85.18;102571.31;4856415;29;20101;-85
2021/08/23 21:00:00;;;;;;;2.67;1.80;;;;;;;13.40;84.85;102610.97;4853857;29;20026;-86
2021/08/23 21:02:26;;;;;;;2.50;1.90;;;;;;;12.78;85.48;102513.47;4855185;29;20046;-85
2021/08/23 21:04:52;;;;;;;4.55;1.90;;;;;;;12.75;85.50;102523.75;4851892;29;20014;-85
2021/08/23 21:07:17;;;;;;;3.50;1.77;;;;;;;12.31;85.83;102468.28;4849269;29;20068;-84
2021/08/23 21:09:43;;;;;;;2.50;1.70;;;;;;;13.42;86.21;102640.53;4855673;29;20093;-85
2021/08/23 21:12:08;;;;;;;4.47;1.92;;;;;;;13.24;86.55;102629.06;4859843;29;20061;-83
2021/08/23 21:14:34;;;;;;;5.22;2.05;;;;;;;13.34;86.47;102645.97;4843649;29;20029;-85
2021/08/23 21:19:38;;;;;;;2.80;2.13;;;;;;;12.48;86.81;102541.16;4850688;29;20050;-84
2021/08/23 21:29:41;;;;;;;5.03;1.80;;;;;;;12.56;87.43;102587.09;4938222;24;20046;-85
2021/08/23 21:37:17;;;;;;;3.55;1.95;;;;;;;11.62;87.81;102448.84;5273194;23;20038;-83
2021/08/23 21:39:43;;;;;;;5.10;2.40;;;;;;;12.54;87.98;102606.13;4863226;29;20046;-86
2021/08/23 21:42:08;;;;;;;3.67;2.00;;;;;;;11.90;88.10;102511.44;4851624;29;20034;-85
2021/08/23 21:44:36;;;;;;;3.97;2.00;;;;;;;11.94;87.90;102534.38;4848197;29;20070;-84
2021/08/23 21:47:01;;;;;;;3.13;1.98;;;;;;;11.91;88.41;102540.09;4847429;29;20045;-84
2021/08/23 21:52:02;;;;;;;4.85;2.47;;;;;;;11.53;88.83;102501.06;4977760;24;20046;-85
2021/08/23 21:54:28;;;;;;;5.10;2.10;;;;;;;12.60;88.83;102672.97;4848923;29;20014;-85
2021/08/23 21:56:54;;;;;;;6.43;2.28;;;;;;;11.67;88.78;102545.41;4844414;29;20048;-85
2021/08/23 22:48:28;;;;;;;4.45;1.95;;;;;;;10.92;91.03;102547.91;5120949;23;20076;-84
2021/08/23 23:19:20;;;;;;;3.60;2.28;;;;;;;10.70;92.65;102549.28;5344592;24;20049;-84
2021/08/23 23:21:47;;;;;;;6.03;2.65;;;;;;;10.56;92.73;102531.81;4849915;29;20038;-85
2021/08/23 23:24:13;;;;;;;5.07;2.30;;;;;;;11.46;93.08;102686.88;4852262;29;20033;-84
2021/08/23 23:26:39;;;;;;;3.83;2.45;;;;;;;11.44;93.10;102688.03;4868748;29;20025;-85
2021/08/23 23:29:04;;;;;;;4.95;2.60;;;;;;;11.43;92.92;102689.88;4868031;29;20040;-85
2021/08/23 23:31:30;;;;;;;2.85;2.05;;;;;;;11.37;93.01;102685.13;4838033;29;20032;-85
2021/08/23 23:33:57;;;;;;;4.85;2.42;;;;;;;10.58;93.29;102565.69;5627455;23;20020;-77
2021/08/23 23:36:26;;;;;;;6.70;2.95;;;;;;;10.77;93.33;102602.34;4833281;29;20030;-85
2021/08/23 23:38:52;;;;;;;5.50;2.40;;;;;;;10.50;93.07;102559.41;4835749;29;20476;-85
2021/08/23 23:41:19;;;;;;;5.13;2.45;;;;;;;10.11;93.35;102505.88;4849625;29;20021;-84
2021/08/23 23:43:45;;;;;;;4.93;2.30;;;;;;;10.73;93.40;102595.59;4848743;29;20059;-85
2021/08/23 23:46:10;;;;;;;4.57;2.30;;;;;;;11.33;93.49;102699.06;4846979;29;20035;-85
2021/08/23 23:48:37;;;;;;;3.95;2.47;;;;;;;9.89;93.66;102486.50;4846178;29;20087;-84
2021/08/23 23:51:06;;;;;;;5.18;2.95;;;;;;;10.57;93.43;102598.97;4847761;29;20015;-84
2021/08/23 23:53:32;;;;;;;3.70;2.60;;;;;;;9.87;93.86;102479.63;4849712;29;20063;-85